RYR385 LPPT-LPMA
Flight info
| Callsign | RYR385 |
|---|---|
| Flight time | 1h 32m |
| Altitude | 37000 |
| Route | ULVOT DCT GALPA DCT RAKUN |
| Aircraft | B38M/M-SDE1FGHILORVWXY/HB1 |
Departure
| Time | 2026-05-01 09:02 |
|---|---|
| Airport | Lisbon Humberto Delgado Airport (LPPT) |
Arrival
| Time | 2026-05-01 10:35 |
|---|---|
| Airport | Cristiano Ronaldo International Airport (LPMA) |
| Time | Latitude | Longitude | Altitude | Speed | Heading |
|---|---|---|---|---|---|
| 2026-05-01 08:48 | 38.76445 | -9.13805 | 356 ft | 0 kts | 168° |
| 2026-05-01 08:56 | 38.76465 | -9.13809 | 358 ft | 4 kts | 175° |
| 2026-05-01 08:57 | 38.76491 | -9.13808 | 355 ft | 4 kts | 190° |
| 2026-05-01 08:57 | 38.76516 | -9.13798 | 357 ft | 4 kts | 212° |
| 2026-05-01 08:57 | 38.76533 | -9.13775 | 355 ft | 3 kts | 253° |
| 2026-05-01 08:57 | 38.76534 | -9.13770 | 355 ft | 1 kts | 258° |
| 2026-05-01 08:59 | 38.76532 | -9.13783 | 354 ft | 5 kts | 258° |
| 2026-05-01 09:00 | 38.76518 | -9.13870 | 350 ft | 11 kts | 258° |
| 2026-05-01 09:00 | 38.76553 | -9.13956 | 351 ft | 12 kts | 322° |
| 2026-05-01 09:00 | 38.76564 | -9.14043 | 349 ft | 11 kts | 256° |
| 2026-05-01 09:00 | 38.76563 | -9.14150 | 349 ft | 15 kts | 292° |
| 2026-05-01 09:01 | 38.76607 | -9.14277 | 336 ft | 2 kts | 293° |
| 2026-05-01 09:01 | 38.76607 | -9.14278 | 337 ft | 1 kts | 293° |
| 2026-05-01 09:01 | 38.76627 | -9.14337 | 337 ft | 15 kts | 293° |
| 2026-05-01 09:02 | 38.76721 | -9.14349 | 337 ft | 31 kts | 25° |
| 2026-05-01 09:02 | 38.77162 | -9.14111 | 357 ft | 107 kts | 22° |
| 2026-05-01 09:02 | 38.78071 | -9.13623 | 403 ft | 170 kts | 23° |
| 2026-05-01 09:02 | 38.79230 | -9.12964 | 1046 ft | 187 kts | 25° |
| 2026-05-01 09:03 | 38.80418 | -9.12269 | 2016 ft | 190 kts | 24° |
| 2026-05-01 09:03 | 38.81683 | -9.11534 | 2697 ft | 209 kts | 25° |
| 2026-05-01 09:03 | 38.82845 | -9.10386 | 3432 ft | 224 kts | 54° |
| 2026-05-01 09:03 | 38.83425 | -9.08486 | 4181 ft | 238 kts | 85° |
| 2026-05-01 09:04 | 38.83222 | -9.06360 | 5017 ft | 247 kts | 109° |
| 2026-05-01 09:04 | 38.82539 | -9.04310 | 5889 ft | 255 kts | 126° |
| 2026-05-01 09:04 | 38.81260 | -9.02733 | 6768 ft | 260 kts | 149° |
| 2026-05-01 09:04 | 38.79571 | -9.01866 | 7577 ft | 266 kts | 168° |
| 2026-05-01 09:05 | 38.77732 | -9.01458 | 8508 ft | 269 kts | 174° |
| 2026-05-01 09:05 | 38.75857 | -9.01206 | 9458 ft | 274 kts | 175° |
| 2026-05-01 09:05 | 38.73934 | -9.00960 | 10345 ft | 279 kts | 175° |
| 2026-05-01 09:05 | 38.71947 | -9.00698 | 10928 ft | 296 kts | 175° |
| 2026-05-01 09:06 | 38.69854 | -9.00420 | 11327 ft | 316 kts | 175° |
| 2026-05-01 09:06 | 38.67594 | -9.00117 | 11715 ft | 335 kts | 175° |
| 2026-05-01 09:06 | 38.65239 | -9.00225 | 12217 ft | 345 kts | 194° |
| 2026-05-01 09:06 | 38.63042 | -9.01480 | 13005 ft | 348 kts | 214° |
| 2026-05-01 09:07 | 38.61226 | -9.03562 | 13774 ft | 353 kts | 224° |
| 2026-05-01 09:07 | 38.59475 | -9.05779 | 14462 ft | 357 kts | 224° |
| 2026-05-01 09:07 | 38.57707 | -9.08037 | 15223 ft | 358 kts | 225° |
| 2026-05-01 09:07 | 38.55976 | -9.10264 | 15949 ft | 359 kts | 225° |
| 2026-05-01 09:08 | 38.54208 | -9.12543 | 16668 ft | 361 kts | 225° |
| 2026-05-01 09:08 | 38.52433 | -9.14832 | 17381 ft | 363 kts | 226° |
| 2026-05-01 09:08 | 38.50647 | -9.17135 | 18081 ft | 365 kts | 226° |
| 2026-05-01 09:08 | 38.48851 | -9.19450 | 18739 ft | 367 kts | 226° |
| 2026-05-01 09:09 | 38.47073 | -9.21739 | 19289 ft | 370 kts | 226° |
| 2026-05-01 09:09 | 38.45260 | -9.24071 | 19830 ft | 373 kts | 226° |
| 2026-05-01 09:09 | 38.43409 | -9.26451 | 20381 ft | 375 kts | 226° |
| 2026-05-01 09:09 | 38.41557 | -9.28832 | 20903 ft | 379 kts | 226° |
| 2026-05-01 09:10 | 38.39695 | -9.31222 | 21411 ft | 382 kts | 226° |
| 2026-05-01 09:10 | 38.37812 | -9.33639 | 21933 ft | 385 kts | 226° |
| 2026-05-01 09:10 | 38.35917 | -9.36068 | 22437 ft | 388 kts | 226° |
| 2026-05-01 09:10 | 38.34007 | -9.38514 | 22931 ft | 391 kts | 226° |
| 2026-05-01 09:11 | 38.32081 | -9.40979 | 23439 ft | 394 kts | 227° |
| 2026-05-01 09:11 | 38.30140 | -9.43461 | 23891 ft | 397 kts | 227° |
| 2026-05-01 09:11 | 38.28183 | -9.45962 | 24309 ft | 399 kts | 227° |
| 2026-05-01 09:11 | 38.26247 | -9.48435 | 24753 ft | 400 kts | 227° |
| 2026-05-01 09:12 | 38.24251 | -9.50981 | 25175 ft | 402 kts | 227° |
| 2026-05-01 09:12 | 38.22297 | -9.53472 | 25590 ft | 404 kts | 228° |
| 2026-05-01 09:12 | 38.20304 | -9.56010 | 26002 ft | 405 kts | 228° |
| 2026-05-01 09:12 | 38.18307 | -9.58552 | 26413 ft | 407 kts | 228° |
| 2026-05-01 09:13 | 38.16300 | -9.61103 | 26808 ft | 409 kts | 229° |
| 2026-05-01 09:13 | 38.14280 | -9.63669 | 27207 ft | 410 kts | 229° |
| 2026-05-01 09:13 | 38.12257 | -9.66237 | 27601 ft | 412 kts | 229° |
| 2026-05-01 09:13 | 38.10226 | -9.68813 | 27980 ft | 414 kts | 229° |
| 2026-05-01 09:14 | 38.08181 | -9.71406 | 28350 ft | 416 kts | 229° |
| 2026-05-01 09:14 | 38.06129 | -9.74004 | 28718 ft | 417 kts | 229° |
| 2026-05-01 09:14 | 38.04066 | -9.76614 | 29079 ft | 419 kts | 229° |
| 2026-05-01 09:14 | 38.01996 | -9.79232 | 29429 ft | 421 kts | 230° |
| 2026-05-01 09:15 | 37.99955 | -9.81893 | 29793 ft | 420 kts | 234° |
| 2026-05-01 09:15 | 37.98079 | -9.84724 | 30260 ft | 418 kts | 234° |
| 2026-05-01 09:15 | 37.96222 | -9.87489 | 30699 ft | 416 kts | 234° |
| 2026-05-01 09:15 | 37.94344 | -9.90259 | 31163 ft | 413 kts | 233° |
| 2026-05-01 09:16 | 37.93283 | -9.91819 | 31427 ft | 412 kts | 233° |
| 2026-05-01 09:16 | 37.91624 | -9.94252 | 31840 ft | 409 kts | 233° |
| 2026-05-01 09:16 | 37.89771 | -9.96966 | 32294 ft | 407 kts | 233° |
| 2026-05-01 09:17 | 37.86093 | -10.02345 | 33185 ft | 402 kts | 233° |
| 2026-05-01 09:17 | 37.84263 | -10.05018 | 33614 ft | 399 kts | 233° |
| 2026-05-01 09:17 | 37.80646 | -10.10295 | 34427 ft | 395 kts | 233° |
| 2026-05-01 09:18 | 37.78847 | -10.12917 | 34744 ft | 394 kts | 233° |
| 2026-05-01 09:18 | 37.75279 | -10.18109 | 35343 ft | 392 kts | 233° |
| 2026-05-01 09:19 | 37.71703 | -10.23303 | 35914 ft | 390 kts | 233° |
| 2026-05-01 09:19 | 37.69918 | -10.25894 | 36190 ft | 390 kts | 233° |
| 2026-05-01 09:19 | 37.68141 | -10.28471 | 36458 ft | 389 kts | 233° |
| 2026-05-01 09:20 | 37.64592 | -10.33610 | 36966 ft | 387 kts | 233° |
| 2026-05-01 09:20 | 37.61048 | -10.38735 | 37194 ft | 387 kts | 233° |
| 2026-05-01 09:21 | 37.57520 | -10.43828 | 37188 ft | 385 kts | 233° |
| 2026-05-01 09:21 | 37.52259 | -10.51408 | 37184 ft | 385 kts | 233° |
| 2026-05-01 09:22 | 37.45202 | -10.61549 | 37187 ft | 385 kts | 233° |
| 2026-05-01 09:23 | 37.39900 | -10.69148 | 37185 ft | 385 kts | 233° |
| 2026-05-01 09:24 | 37.34601 | -10.76724 | 37183 ft | 385 kts | 233° |
| 2026-05-01 09:25 | 37.27550 | -10.86777 | 37185 ft | 385 kts | 233° |
| 2026-05-01 09:26 | 37.22232 | -10.94340 | 37182 ft | 384 kts | 233° |
| 2026-05-01 09:26 | 37.16920 | -11.01875 | 37187 ft | 384 kts | 233° |
| 2026-05-01 09:27 | 37.11605 | -11.09399 | 37187 ft | 384 kts | 233° |
| 2026-05-01 09:28 | 37.08085 | -11.14372 | 37181 ft | 384 kts | 233° |
| 2026-05-01 09:28 | 37.04543 | -11.19368 | 37184 ft | 383 kts | 233° |
| 2026-05-01 09:29 | 36.99228 | -11.26852 | 37189 ft | 383 kts | 233° |
| 2026-05-01 09:30 | 36.93913 | -11.34318 | 37190 ft | 383 kts | 233° |
| 2026-05-01 09:30 | 36.88619 | -11.41737 | 37185 ft | 382 kts | 233° |
| 2026-05-01 09:31 | 36.85068 | -11.46705 | 37190 ft | 382 kts | 233° |
| 2026-05-01 09:32 | 36.79750 | -11.54131 | 37183 ft | 382 kts | 233° |
| 2026-05-01 09:32 | 36.74448 | -11.61516 | 37185 ft | 382 kts | 233° |
| 2026-05-01 09:33 | 36.70903 | -11.66445 | 37186 ft | 382 kts | 232° |
| 2026-05-01 09:34 | 36.65568 | -11.73850 | 37182 ft | 382 kts | 232° |
| 2026-05-01 09:34 | 36.60233 | -11.81237 | 37180 ft | 382 kts | 232° |
| 2026-05-01 09:35 | 36.54896 | -11.88612 | 37184 ft | 383 kts | 232° |
| 2026-05-01 09:36 | 36.51354 | -11.93498 | 37178 ft | 383 kts | 232° |
| 2026-05-01 09:36 | 36.47783 | -11.98416 | 37179 ft | 383 kts | 232° |
| 2026-05-01 09:37 | 36.44811 | -12.02502 | 37178 ft | 383 kts | 232° |
| 2026-05-01 09:37 | 36.39447 | -12.09866 | 37177 ft | 384 kts | 232° |
| 2026-05-01 09:38 | 36.34066 | -12.17237 | 37176 ft | 384 kts | 232° |
| 2026-05-01 09:39 | 36.28680 | -12.24599 | 37176 ft | 384 kts | 232° |
| 2026-05-01 09:39 | 36.25082 | -12.29508 | 37178 ft | 385 kts | 232° |
| 2026-05-01 09:40 | 36.19680 | -12.36863 | 37179 ft | 385 kts | 231° |
| 2026-05-01 09:41 | 36.16073 | -12.41766 | 37177 ft | 385 kts | 231° |
| 2026-05-01 09:41 | 36.10678 | -12.49086 | 37180 ft | 385 kts | 231° |
| 2026-05-01 09:42 | 36.07065 | -12.53978 | 37175 ft | 385 kts | 231° |
| 2026-05-01 09:43 | 35.99818 | -12.63771 | 37169 ft | 386 kts | 231° |
| 2026-05-01 09:43 | 35.96190 | -12.68663 | 37181 ft | 386 kts | 231° |
| 2026-05-01 09:44 | 35.90734 | -12.76005 | 37173 ft | 387 kts | 231° |
| 2026-05-01 09:45 | 35.87089 | -12.80902 | 37174 ft | 387 kts | 231° |
| 2026-05-01 09:45 | 35.81642 | -12.88205 | 37176 ft | 387 kts | 231° |
| 2026-05-01 09:46 | 35.77988 | -12.93097 | 37170 ft | 388 kts | 231° |
| 2026-05-01 09:46 | 35.74328 | -12.97988 | 37171 ft | 388 kts | 231° |
| 2026-05-01 09:47 | 35.70665 | -13.02876 | 37172 ft | 388 kts | 231° |
| 2026-05-01 09:47 | 35.66999 | -13.07762 | 37169 ft | 388 kts | 231° |
| 2026-05-01 09:48 | 35.63331 | -13.12643 | 37168 ft | 389 kts | 231° |
| 2026-05-01 09:48 | 35.59683 | -13.17490 | 37167 ft | 389 kts | 231° |
| 2026-05-01 09:49 | 35.56004 | -13.22372 | 37168 ft | 389 kts | 231° |
| 2026-05-01 09:49 | 35.52320 | -13.27253 | 37164 ft | 389 kts | 231° |
| 2026-05-01 09:50 | 35.48633 | -13.32129 | 37169 ft | 389 kts | 231° |
| 2026-05-01 09:50 | 35.44947 | -13.37000 | 37164 ft | 390 kts | 231° |
| 2026-05-01 09:51 | 35.41252 | -13.41874 | 37166 ft | 390 kts | 231° |
| 2026-05-01 09:51 | 35.37557 | -13.46741 | 37164 ft | 390 kts | 231° |
| 2026-05-01 09:52 | 35.33883 | -13.51574 | 37169 ft | 390 kts | 231° |
| 2026-05-01 09:52 | 35.30180 | -13.56437 | 37169 ft | 390 kts | 231° |
| 2026-05-01 09:53 | 35.26477 | -13.61294 | 37164 ft | 390 kts | 231° |
| 2026-05-01 09:53 | 35.22771 | -13.66147 | 37166 ft | 390 kts | 231° |
| 2026-05-01 09:54 | 35.19058 | -13.71003 | 37164 ft | 390 kts | 231° |
| 2026-05-01 09:54 | 35.15351 | -13.75845 | 37164 ft | 390 kts | 231° |
| 2026-05-01 09:55 | 35.11662 | -13.80655 | 37166 ft | 390 kts | 231° |
| 2026-05-01 09:55 | 35.07947 | -13.85493 | 37165 ft | 390 kts | 231° |
| 2026-05-01 09:56 | 35.04228 | -13.90330 | 37160 ft | 391 kts | 231° |
| 2026-05-01 09:56 | 35.00499 | -13.95171 | 37161 ft | 391 kts | 231° |
| 2026-05-01 09:57 | 34.96795 | -13.99974 | 37160 ft | 391 kts | 231° |
| 2026-05-01 09:57 | 34.93065 | -14.04804 | 37160 ft | 391 kts | 231° |
| 2026-05-01 09:58 | 34.89334 | -14.09627 | 37159 ft | 391 kts | 231° |
| 2026-05-01 09:58 | 34.85594 | -14.14457 | 37167 ft | 391 kts | 231° |
| 2026-05-01 09:59 | 34.81855 | -14.19277 | 37164 ft | 392 kts | 231° |
| 2026-05-01 09:59 | 34.78112 | -14.24096 | 37163 ft | 391 kts | 231° |
| 2026-05-01 10:00 | 34.74368 | -14.28911 | 37160 ft | 392 kts | 231° |
| 2026-05-01 10:00 | 34.70646 | -14.33691 | 37160 ft | 391 kts | 231° |
| 2026-05-01 10:01 | 34.66894 | -14.38503 | 37157 ft | 391 kts | 231° |
| 2026-05-01 10:01 | 34.63147 | -14.43303 | 37157 ft | 391 kts | 231° |
| 2026-05-01 10:02 | 34.59392 | -14.48107 | 37158 ft | 392 kts | 231° |
| 2026-05-01 10:02 | 34.55661 | -14.52871 | 37155 ft | 391 kts | 231° |
| 2026-05-01 10:03 | 34.51904 | -14.57664 | 37157 ft | 391 kts | 231° |
| 2026-05-01 10:03 | 34.48146 | -14.62451 | 37157 ft | 392 kts | 231° |
| 2026-05-01 10:04 | 34.44380 | -14.67241 | 37141 ft | 392 kts | 231° |
| 2026-05-01 10:04 | 34.40615 | -14.72023 | 37155 ft | 392 kts | 231° |
| 2026-05-01 10:05 | 34.36835 | -14.76798 | 37169 ft | 392 kts | 231° |
| 2026-05-01 10:05 | 34.33064 | -14.81572 | 37158 ft | 393 kts | 231° |
| 2026-05-01 10:06 | 34.29303 | -14.86329 | 37156 ft | 393 kts | 231° |
| 2026-05-01 10:06 | 34.25514 | -14.91116 | 37157 ft | 394 kts | 231° |
| 2026-05-01 10:07 | 34.21719 | -14.95902 | 37158 ft | 394 kts | 231° |
| 2026-05-01 10:07 | 34.17920 | -15.00687 | 37154 ft | 395 kts | 231° |
| 2026-05-01 10:08 | 34.12211 | -15.07866 | 36955 ft | 392 kts | 231° |
| 2026-05-01 10:08 | 34.10322 | -15.10238 | 36300 ft | 391 kts | 231° |
| 2026-05-01 10:09 | 34.08435 | -15.12606 | 35733 ft | 389 kts | 231° |
| 2026-05-01 10:09 | 34.06585 | -15.14926 | 35095 ft | 389 kts | 231° |
| 2026-05-01 10:09 | 34.04702 | -15.17285 | 34379 ft | 392 kts | 231° |
| 2026-05-01 10:09 | 34.02804 | -15.19662 | 33583 ft | 394 kts | 231° |
| 2026-05-01 10:10 | 34.00900 | -15.22044 | 32808 ft | 396 kts | 230° |
| 2026-05-01 10:10 | 33.98988 | -15.24436 | 32088 ft | 398 kts | 230° |
| 2026-05-01 10:10 | 33.95089 | -15.29305 | 30551 ft | 407 kts | 230° |
| 2026-05-01 10:11 | 33.93119 | -15.31764 | 29673 ft | 408 kts | 230° |
| 2026-05-01 10:11 | 33.91143 | -15.34229 | 28952 ft | 406 kts | 230° |
| 2026-05-01 10:11 | 33.89191 | -15.36662 | 28369 ft | 408 kts | 229° |
| 2026-05-01 10:11 | 33.87229 | -15.39104 | 27757 ft | 412 kts | 229° |
| 2026-05-01 10:12 | 33.85204 | -15.41624 | 27153 ft | 414 kts | 229° |
| 2026-05-01 10:12 | 33.83876 | -15.43276 | 26767 ft | 413 kts | 229° |
| 2026-05-01 10:12 | 33.79248 | -15.49024 | 25400 ft | 408 kts | 229° |
| 2026-05-01 10:13 | 33.77284 | -15.51461 | 24825 ft | 405 kts | 229° |
| 2026-05-01 10:13 | 33.75328 | -15.53887 | 24252 ft | 403 kts | 229° |
| 2026-05-01 10:13 | 33.73386 | -15.56293 | 23670 ft | 400 kts | 228° |
| 2026-05-01 10:14 | 33.69541 | -15.61053 | 22428 ft | 392 kts | 228° |
| 2026-05-01 10:14 | 33.67647 | -15.63394 | 21874 ft | 388 kts | 228° |
| 2026-05-01 10:14 | 33.65798 | -15.65679 | 21334 ft | 384 kts | 228° |
| 2026-05-01 10:14 | 33.63945 | -15.67968 | 20793 ft | 381 kts | 228° |
| 2026-05-01 10:15 | 33.62104 | -15.70241 | 20262 ft | 378 kts | 228° |
| 2026-05-01 10:15 | 33.60276 | -15.72496 | 19733 ft | 375 kts | 228° |
| 2026-05-01 10:15 | 33.58461 | -15.74734 | 19211 ft | 373 kts | 228° |
| 2026-05-01 10:15 | 33.56657 | -15.76957 | 18695 ft | 371 kts | 228° |
| 2026-05-01 10:16 | 33.54819 | -15.79142 | 18034 ft | 372 kts | 226° |
| 2026-05-01 10:16 | 33.52976 | -15.81295 | 17505 ft | 368 kts | 227° |
| 2026-05-01 10:16 | 33.49344 | -15.85553 | 16537 ft | 361 kts | 227° |
| 2026-05-01 10:17 | 33.47556 | -15.87649 | 16057 ft | 358 kts | 227° |
| 2026-05-01 10:17 | 33.44017 | -15.91795 | 15117 ft | 353 kts | 227° |
| 2026-05-01 10:17 | 33.42264 | -15.93846 | 14656 ft | 351 kts | 227° |
| 2026-05-01 10:18 | 33.38806 | -15.97889 | 13724 ft | 348 kts | 227° |
| 2026-05-01 10:18 | 33.37079 | -15.99907 | 13246 ft | 345 kts | 226° |
| 2026-05-01 10:18 | 33.35366 | -16.01907 | 12791 ft | 342 kts | 226° |
| 2026-05-01 10:19 | 33.33669 | -16.03887 | 12355 ft | 339 kts | 226° |
| 2026-05-01 10:19 | 33.31986 | -16.05851 | 11898 ft | 338 kts | 226° |
| 2026-05-01 10:19 | 33.30306 | -16.07809 | 11561 ft | 334 kts | 226° |
| 2026-05-01 10:20 | 33.27071 | -16.11578 | 11196 ft | 315 kts | 226° |
| 2026-05-01 10:20 | 33.25539 | -16.13360 | 11036 ft | 297 kts | 226° |
| 2026-05-01 10:20 | 33.24107 | -16.15026 | 10911 ft | 280 kts | 226° |
| 2026-05-01 10:20 | 33.22732 | -16.16624 | 10770 ft | 271 kts | 226° |
| 2026-05-01 10:21 | 33.21414 | -16.18156 | 10638 ft | 263 kts | 226° |
| 2026-05-01 10:21 | 33.18876 | -16.21104 | 10383 ft | 246 kts | 226° |
| 2026-05-01 10:21 | 33.17644 | -16.22534 | 10266 ft | 251 kts | 226° |
| 2026-05-01 10:22 | 33.15073 | -16.25516 | 9947 ft | 262 kts | 225° |
| 2026-05-01 10:22 | 33.12450 | -16.28556 | 9369 ft | 262 kts | 225° |
| 2026-05-01 10:23 | 33.11157 | -16.30053 | 9089 ft | 261 kts | 225° |
| 2026-05-01 10:23 | 33.08562 | -16.33056 | 8543 ft | 259 kts | 225° |
| 2026-05-01 10:23 | 33.07269 | -16.34552 | 8269 ft | 258 kts | 225° |
| 2026-05-01 10:24 | 33.04713 | -16.37507 | 7711 ft | 253 kts | 225° |
| 2026-05-01 10:24 | 33.02205 | -16.40404 | 7179 ft | 249 kts | 225° |
| 2026-05-01 10:25 | 33.00148 | -16.42778 | 6740 ft | 245 kts | 225° |
| 2026-05-01 10:25 | 32.97720 | -16.45578 | 6197 ft | 241 kts | 225° |
| 2026-05-01 10:26 | 32.96522 | -16.46958 | 5935 ft | 238 kts | 225° |
| 2026-05-01 10:26 | 32.94950 | -16.48770 | 5589 ft | 235 kts | 225° |
| 2026-05-01 10:26 | 32.92979 | -16.51033 | 5168 ft | 241 kts | 223° |
| 2026-05-01 10:27 | 32.90443 | -16.53744 | 4609 ft | 247 kts | 223° |
| 2026-05-01 10:27 | 32.87898 | -16.56468 | 4199 ft | 242 kts | 223° |
| 2026-05-01 10:28 | 32.86669 | -16.57785 | 4070 ft | 233 kts | 223° |
| 2026-05-01 10:28 | 32.84238 | -16.60110 | 3825 ft | 216 kts | 215° |
| 2026-05-01 10:28 | 32.83024 | -16.61108 | 3688 ft | 208 kts | 216° |
| 2026-05-01 10:29 | 32.80646 | -16.63088 | 3467 ft | 212 kts | 216° |
| 2026-05-01 10:29 | 32.79464 | -16.64069 | 3344 ft | 204 kts | 215° |
| 2026-05-01 10:30 | 32.77197 | -16.65935 | 3033 ft | 191 kts | 216° |
| 2026-05-01 10:30 | 32.74995 | -16.67752 | 2543 ft | 194 kts | 215° |
| 2026-05-01 10:31 | 32.72803 | -16.69564 | 2044 ft | 188 kts | 214° |
| 2026-05-01 10:31 | 32.70675 | -16.71321 | 1495 ft | 184 kts | 215° |
| 2026-05-01 10:32 | 32.68705 | -16.73070 | 1107 ft | 167 kts | 220° |
| 2026-05-01 10:32 | 32.67843 | -16.74012 | 1144 ft | 171 kts | 224° |
| 2026-05-01 10:32 | 32.66226 | -16.76073 | 1331 ft | 172 kts | 229° |
| 2026-05-01 10:33 | 32.65133 | -16.78452 | 1200 ft | 168 kts | 268° |
| 2026-05-01 10:33 | 32.66538 | -16.80283 | 724 ft | 157 kts | 355° |
| 2026-05-01 10:34 | 32.67559 | -16.79989 | 550 ft | 154 kts | 33° |
| 2026-05-01 10:34 | 32.68333 | -16.79147 | 356 ft | 152 kts | 46° |
| 2026-05-01 10:34 | 32.69080 | -16.78275 | 178 ft | 148 kts | 47° |
| 2026-05-01 10:35 | 32.69964 | -16.77235 | 211 ft | 28 kts | 60° |
| 2026-05-01 10:35 | 32.69861 | -16.77170 | 187 ft | 26 kts | 199° |
| 2026-05-01 10:35 | 32.69722 | -16.77323 | 182 ft | 29 kts | 226° |
| 2026-05-01 10:35 | 32.69590 | -16.77486 | 181 ft | 26 kts | 225° |
| 2026-05-01 10:36 | 32.69539 | -16.77547 | 180 ft | 9 kts | 225° |
| 2026-05-01 10:36 | 32.69488 | -16.77532 | 178 ft | 9 kts | 134° |
| 2026-05-01 10:37 | 32.69474 | -16.77516 | 178 ft | 0 kts | 137° |